Flight Track Log - Related Links

Times and Time Zones

All times are in EDT time to prevent confusion due to time zone crossing. See the UAL1212 flight status page for this flight to view local times or setup timezone preferences in your user account.

Time Position Orientation Groundspeed Altitude Reporting Facility
EDT Latitude Longitude Course Direction KTS MPH feet Rate Location/Type
Mon 12:37:15 AM 39.8375 -104.6604 349° North  Level FlightAware Approximate
Mon 12:38:15 AM 39.9367 -104.7100 12° North  Level FlightAware Approximate
Mon 12:38:54 AM 39.9847 -104.6964 358° North 229 264 9,200  Level Denver Center
Mon 12:39:32 AM 40.0500 -104.7000 351° North 298 343 10,600 2,694 Climbing Denver TRACON
Mon 12:40:32 AM 40.1333 -104.7167 335° Northwest 345 397 13,600 2,895 Climbing Denver TRACON
Mon 12:41:26 AM 40.2167 -104.7667 345° North 362 417 16,100 2,512 Climbing Denver TRACON
Mon 12:41:58 AM 40.2558 -104.7806 337° Northwest 371 427 17,200 2,839 Climbing Denver Center
Mon 12:42:59 AM 40.3686 -104.8447 337° Northwest 374 430 20,500 2,754 Climbing Denver Center
Mon 12:44:00 AM 40.4700 -104.9017 336° Northwest 389 448 22,800 2,311 Climbing Denver Center
Mon 12:45:01 AM 40.5736 -104.9622 336° Northwest 401 461 25,200 2,115 Climbing Denver Center
Mon 12:46:02 AM 40.6800 -105.0247 309° West 414 476 27,100 1,770 Climbing Denver Center
Mon 12:47:03 AM 40.7522 -105.1428 303° West 404 465 28,800 1,623 Climbing Denver Center
Mon 12:48:04 AM 40.8183 -105.2778 303° West 429 494 30,400 1,623 Climbing Denver Center
Mon 12:49:05 AM 40.8853 -105.4142 303° West 438 504 32,100 1,770 Climbing Denver Center
Mon 12:50:06 AM 40.9517 -105.5506 303° West 438 504 34,000 1,770 Climbing Denver Center
Mon 12:51:07 AM 41.0208 -105.6928 303° West 432 497 35,700 1,525 Climbing Denver Center
Mon 12:52:08 AM 41.0819 -105.8175 303° West 426 490 37,100 1,131 Climbing Denver Center
Mon 12:53:09 AM 41.1419 -105.9406 303° West 419 482 38,000 443 Climbing Denver Center
Mon 12:54:10 AM 41.2106 -106.0831 303° West 413 475 38,000  Level Denver Center
Mon 12:55:11 AM 41.2711 -106.2064 302° West 411 473 38,000  Level Denver Center
Mon 12:56:12 AM 41.3294 -106.3292 302° West 413 475 38,000  Level Denver Center
Mon 12:57:13 AM 41.3992 -106.4758 303° West 417 480 38,000  Level Denver Center
Mon 12:58:13 AM 41.4578 -106.5978 302° West 414 476 38,000  Level Denver Center
Mon 12:59:14 AM 41.5150 -106.7183 303° West 408 470 38,000  Level Denver Center
Mon 01:00:15 AM 41.5811 -106.8567 301° West 401 461 38,000  Level Denver Center
Mon 01:01:15 AM 41.6358 -106.9772 302° West 401 461 38,000  Level Salt Lake Center
Mon 01:02:17 AM 41.6925 -107.0986 302° West 403 464 38,000  Level Salt Lake Center
Mon 01:03:18 AM 41.7594 -107.2419 302° West 405 466 38,000  Level Salt Lake Center
Mon 01:04:19 AM 41.8167 -107.3642 301° West 406 467 38,000  Level Salt Lake Center
Mon 01:05:20 AM 41.8803 -107.5053 302° West 400 460 38,000  Level Salt Lake Center
Mon 01:06:22 AM 41.9361 -107.6272 302° West 400 460 38,000  Level Salt Lake Center
Mon 01:07:23 AM 41.9931 -107.7494 302° West 403 464 38,000  Level Salt Lake Center
Mon 01:08:24 AM 42.0592 -107.8919 301° West 403 464 38,000  Level Salt Lake Center
Mon 01:09:25 AM 42.1150 -108.0158 301° West 404 465 38,000  Level Salt Lake Center
Mon 01:10:27 AM 42.1792 -108.1625 302° West 407 468 38,000  Level Salt Lake Center
Mon 01:11:28 AM 42.2350 -108.2853 301° West 404 465 38,000  Level Salt Lake Center
Mon 01:12:29 AM 42.2897 -108.4069 302° West 401 461 38,000  Level Salt Lake Center
Mon 01:13:30 AM 42.3542 -108.5492 301° West 399 459 38,000  Level Salt Lake Center
Mon 01:14:31 AM 42.4078 -108.6711 301° West 398 458 38,000  Level Salt Lake Center
Mon 01:15:32 AM 42.4706 -108.8136 301° West 397 457 38,000  Level Salt Lake Center
Mon 01:16:33 AM 42.5253 -108.9381 301° West 400 460 38,000  Level Salt Lake Center
Mon 01:17:34 AM 42.5792 -109.0614 300° West 399 459 38,000  Level Salt Lake Center
Mon 01:18:35 AM 42.6411 -109.2053 301° West 398 458 38,000  Level Salt Lake Center
Mon 01:19:36 AM 42.6942 -109.3261 300° West 394 453 38,000  Level Salt Lake Center
Mon 01:20:37 AM 42.7475 -109.4497 300° West 395 455 38,000  Level Salt Lake Center
Mon 01:21:38 AM 42.8097 -109.5961 300° West 398 458 38,000  Level Salt Lake Center
Mon 01:22:39 AM 42.8631 -109.7200 300° West 398 458 38,000  Level Salt Lake Center
Mon 01:23:40 AM 42.9247 -109.8639 300° West 396 456 38,000  Level Salt Lake Center
Mon 01:24:41 AM 42.9800 -109.9956 301° West 399 459 38,000  Level Salt Lake Center
Mon 01:25:42 AM 43.0339 -110.1208 300° West 400 460 38,000  Level Salt Lake Center
Mon 01:26:43 AM 43.0867 -110.2483 300° West 401 461 38,000  Level Salt Lake Center
Mon 01:27:44 AM 43.1489 -110.3972 300° West 403 464 38,000  Level Salt Lake Center
Mon 01:28:44 AM 43.2031 -110.5250 300° West 404 465 38,000  Level Salt Lake Center
Mon 01:29:45 AM 43.2561 -110.6531 300° West 404 465 38,000  Level Salt Lake Center
Mon 01:30:46 AM 43.3189 -110.8022 300° West 404 465 38,000  Level Salt Lake Center
Mon 01:31:47 AM 43.3708 -110.9286 299° West 399 459 38,000  Level Salt Lake Center
Mon 01:32:47 AM 43.4222 -111.0561 300° West 398 458 38,000  Level Salt Lake Center
Mon 01:33:48 AM 43.4828 -111.2033 299° West 397 457 38,000  Level Salt Lake Center
Mon 01:34:49 AM 43.5333 -111.3297 299° West 394 453 38,000  Level Salt Lake Center
Mon 01:35:50 AM 43.5836 -111.4542 299° West 390 449 38,000  Level Salt Lake Center
Mon 01:36:50 AM 43.6419 -111.5992 299° West 388 447 38,000  Level Salt Lake Center
Mon 01:37:51 AM 43.6917 -111.7247 299° West 388 447 38,000  Level Salt Lake Center
Mon 01:38:52 AM 43.7419 -111.8492 298° West 387 445 38,000  Level Salt Lake Center
Mon 01:39:53 AM 43.7989 -111.9958 299° West 387 445 38,000  Level Salt Lake Center
Mon 01:40:53 AM 43.8483 -112.1194 299° West 384 442 38,000  Level Salt Lake Center
Mon 01:41:54 AM 43.8981 -112.2442 298° West 384 442 38,000  Level Salt Lake Center
Mon 01:42:55 AM 43.9469 -112.3703 298° West 387 445 38,000  Level Salt Lake Center
Mon 01:43:55 AM 44.0039 -112.5183 298° West 388 447 38,000  Level Salt Lake Center
Mon 01:44:56 AM 44.0531 -112.6447 298° West 388 447 38,000  Level Salt Lake Center
Mon 01:45:57 AM 44.1017 -112.7711 298° West 388 447 38,000  Level Salt Lake Center
Mon 01:46:57 AM 44.1586 -112.9189 298° West 387 445 38,000  Level Salt Lake Center
Mon 01:47:58 AM 44.2064 -113.0469 299° West 388 447 38,000  Level Salt Lake Center
Mon 01:48:59 AM 44.2550 -113.1719 298° West 386 444 38,000  Level Salt Lake Center
Mon 01:49:59 AM 44.3103 -113.3206 298° West 386 444 38,000  Level Salt Lake Center
Mon 01:51:00 AM 44.3586 -113.4472 298° West 386 444 38,000  Level Salt Lake Center
Mon 01:52:01 AM 44.4067 -113.5739 297° West 386 444 38,000  Level Salt Lake Center
Mon 01:53:01 AM 44.4611 -113.7219 297° West 384 442 38,000  Level Salt Lake Center
Mon 01:54:02 AM 44.5081 -113.8489 298° West 383 441 38,000  Level Salt Lake Center
Mon 01:55:02 AM 44.5600 -113.9858 297° West 386 444 38,000  Level Salt Lake Center
Mon 01:56:03 AM 44.6069 -114.1133 298° West 385 443 38,000  Level Salt Lake Center
Mon 01:57:04 AM 44.6542 -114.2400 297° West 384 442 38,000  Level Salt Lake Center
Mon 01:58:04 AM 44.7067 -114.3881 297° West 381 438 38,000  Level Salt Lake Center
Mon 01:59:05 AM 44.7522 -114.5144 297° West 380 437 38,000  Level Salt Lake Center
Mon 02:00:06 AM 44.7975 -114.6386 297° West 376 433 38,000  Level Salt Lake Center
Mon 02:01:06 AM 44.8486 -114.7814 297° West 370 426 38,000  Level Salt Lake Center
Mon 02:02:07 AM 44.8925 -114.9036 297° West 367 422 38,000  Level Salt Lake Center
Mon 02:03:08 AM 44.9350 -115.0236 296° West 362 417 38,000  Level Salt Lake Center
Mon 02:04:08 AM 44.9839 -115.1636 296° West 358 412 38,000  Level Salt Lake Center
Mon 02:05:09 AM 45.0256 -115.2831 297° West 356 410 38,000  Level Salt Lake Center
Mon 02:06:09 AM 45.0672 -115.4000 296° West 352 405 38,000  Level Salt Lake Center
Mon 02:07:10 AM 45.1153 -115.5369 296° West 350 403 38,000  Level Salt Lake Center
Mon 02:08:10 AM 45.1547 -115.6542 296° West 347 399 38,000  Level Salt Lake Center
Mon 02:08:53 AM 45.1889 -115.7547 296° West 348 400 38,000  Level Seattle Center
Mon 02:09:54 AM 45.2292 -115.8711 296° West 346 398 38,000  Level Seattle Center
Mon 02:10:54 AM 45.2697 -115.9892 296° West 348 400 38,000  Level Seattle Center
Mon 02:11:55 AM 45.3167 -116.1283 295° West 350 403 38,000  Level Seattle Center
Mon 02:12:55 AM 45.3556 -116.2464 296° West 347 399 38,000  Level Seattle Center
Mon 02:13:56 AM 45.3961 -116.3633 295° West 347 399 38,000  Level Seattle Center
Mon 02:14:56 AM 45.4356 -116.4822 295° West 347 399 38,000  Level Seattle Center
Mon 02:15:57 AM 45.4814 -116.6203 296° West 346 398 38,000  Level Seattle Center
Mon 02:16:57 AM 45.5214 -116.7386 295° West 347 399 38,000  Level Seattle Center
Mon 02:17:58 AM 45.5606 -116.8564 294° West 346 398 38,000  Level Seattle Center
Mon 02:18:58 AM 45.6053 -116.9969 296° West 347 399 38,000  Level Seattle Center
Mon 02:19:59 AM 45.6450 -117.1144 295° West 345 397 38,000  Level Seattle Center
Mon 02:20:59 AM 45.6819 -117.2272 295° West 346 398 38,000  Level Seattle Center
Mon 02:22:00 AM 45.7231 -117.3542 295° West 350 403 38,000 -50 Level Seattle Center
Mon 02:23:00 AM 45.7644 -117.4811 295° West 352 405 37,900 -50 Descending Seattle Center
Mon 02:24:01 AM 45.8053 -117.6072 295° West 350 403 37,900  Level Seattle Center
Mon 02:25:01 AM 45.8461 -117.7350 294° West 351 404 37,900 50 Level Seattle Center
Mon 02:26:02 AM 45.8858 -117.8611 295° West 350 403 38,000  Climbing Seattle Center
Mon 02:27:02 AM 45.9264 -117.9886 294° West 351 404 37,900  Descending Seattle Center
Mon 02:28:03 AM 45.9744 -118.1417 294° West 351 404 38,000  Climbing Seattle Center
Mon 02:29:03 AM 46.0147 -118.2711 294° West 353 406 37,900 -50 Descending Seattle Center
Mon 02:30:03 AM 46.0550 -118.3997 294° West 353 406 37,900 50 Level Seattle Center
Mon 02:31:04 AM 46.0897 -118.5122 294° West 349 402 38,000 50 Climbing Seattle Center
Mon 02:32:04 AM 46.1283 -118.6367 294° West 344 396 38,000  Level Seattle Center
Mon 02:33:05 AM 46.1669 -118.7625 294° West 346 398 38,000  Level Seattle Center
Mon 02:34:05 AM 46.2053 -118.8881 294° West 346 398 38,000  Level Seattle Center
Mon 02:35:06 AM 46.2436 -119.0128 293° West 344 396 38,000  Level Seattle Center
Mon 02:36:06 AM 46.2878 -119.1606 294° West 340 391 38,000  Level Seattle Center
Mon 02:37:06 AM 46.3250 -119.2836 294° West 338 389 38,000  Level Seattle Center
Mon 02:38:07 AM 46.3633 -119.4086 293° West 341 392 38,000  Level Seattle Center
Mon 02:39:07 AM 46.4011 -119.5364 293° West 345 397 38,000  Level Seattle Center
Mon 02:40:08 AM 46.4386 -119.6642 293° West 347 399 38,000  Level Seattle Center
Mon 02:41:08 AM 46.4761 -119.7911 293° West 347 399 38,000  Level Seattle Center
Mon 02:42:08 AM 46.5133 -119.9189 293° West 347 399 38,000  Level Seattle Center
Mon 02:43:09 AM 46.5506 -120.0464 293° West 346 398 38,000  Level Seattle Center
Mon 02:44:09 AM 46.5881 -120.1750 293° West 348 400 38,000  Level Seattle Center
Mon 02:45:10 AM 46.6253 -120.3036 293° West 348 400 38,000  Level Seattle Center
Mon 02:46:10 AM 46.6617 -120.4314 293° West 347 399 38,000 -50 Level Seattle Center
Mon 02:47:10 AM 46.6986 -120.5614 293° West 350 403 37,900 -1,240 Descending Seattle Center
Mon 02:48:11 AM 46.7342 -120.6864 293° West 343 395 35,500 -2,579 Descending Seattle Center
Mon 02:49:11 AM 46.7697 -120.8119 293° West 339 390 32,700 -2,650 Descending Seattle Center
Mon 02:50:11 AM 46.8072 -120.9414 303° West 346 398 30,200 -2,479 Descending Seattle Center
Mon 02:51:12 AM 46.8714 -121.0867 305° West 357 411 27,700 -2,281 Descending Seattle Center
Mon 02:52:12 AM 46.9267 -121.2017 305° West 350 403 25,600 -2,176 Descending Seattle Center
Mon 02:52:43 AM 46.9592 -121.2689 304° West 352 405 24,400 -2,164 Descending Seattle Center
Mon 02:53:13 AM 46.9856 -121.3258 304° West 351 404 23,400 -1,800 Descending Seattle Center
Mon 02:54:13 AM 47.0297 -121.4233 304° West 352 405 21,700 -1,900 Descending Seattle Center
Mon 02:55:13 AM 47.0831 -121.5375 304° West 346 398 19,600 -2,033 Descending Seattle Center
Mon 02:56:14 AM 47.1344 -121.6494 305° West 339 390 17,600 -1,835 Descending Seattle Center
Mon 02:57:14 AM 47.1858 -121.7572 304° West 328 377 15,900 -1,900 Descending Seattle Center
Mon 02:58:14 AM 47.2428 -121.8825 304° West 312 359 13,800 -1,835 Descending Seattle Center
Mon 02:59:15 AM 47.2883 -121.9836 304° West 303 349 12,200 -1,636 Descending Seattle Center
Mon 03:00:15 AM 47.3331 -122.0814 306° West 293 337 10,500 -1,200 Descending Seattle Center
Mon 03:01:15 AM 47.3778 -122.1739 358° North 279 321 9,800 -1,150 Descending Seattle Center
Mon 03:02:15 AM 47.4572 -122.1781 North 301 346 8,200 -1,388 Descending Seattle Center
Mon 03:03:16 AM 47.5447 -122.1714 North 298 343 7,000 -1,091 Descending Seattle Center
Mon 03:04:16 AM 47.6244 -122.1678 350° North 291 335 6,000 -950 Descending Seattle Center
Mon 03:05:16 AM 47.6942 -122.1853 272° West 264 304 5,100 -992 Descending Seattle Center
Mon 03:06:17 AM 47.6958 -122.2694 212° Southwest 216 249 4,000 -545 Descending Seattle Center
Mon 03:07:17 AM 47.6533 -122.3083 182° South 179 206 4,000 -350 Level Seattle Center
Mon 03:08:17 AM 47.6056 -122.3106 180° South 177 204 3,300 -843 Descending Seattle Center
Mon 03:09:18 AM 47.5572 -122.3108 180° South 176 203 2,300 -843 Descending Seattle Center
Mon 03:10:18 AM 47.5189 -122.3108 181° South 154 177 1,600 -750 Descending Seattle Center
Mon 03:11:18 AM 47.4819 -122.3114 180° South 135 155 800 -650 Descending Seattle Center
Mon 03:12:18 AM 47.4378 -122.3114 180° South 136 157 300 -500 Descending Seattle Center

Login

Don't have an account? Register now (free) for customized features, flight alerts, and more!